CSN3512 ZSHC-ZGGG
Flight info
| Callsign | CSN3512 |
|---|---|
| Flight time | 1h 37m |
| Altitude | 34100 |
| Route | ELNEX5E ELNEX A599 PLT W19 OLPAB OLPAB9 |
| Aircraft | B77W/H-SDE1E2E3FGHIJ2J3J4J5M1RWXY/LB1D1 |
Departure
| Time | 2026-05-06 09:45 |
|---|---|
| Airport | Hangzhou Xiaoshan International Airport (ZSHC) |
Arrival
| Time | 2026-05-06 11:23 |
|---|---|
| Airport | Guangzhou Baiyun International Airport (ZGGG) |
| Time | Latitude | Longitude | Altitude | Speed | Heading |
|---|---|---|---|---|---|
| 2026-05-06 09:09 | 30.24127 | 120.42631 | 35 ft | 0 kts | 143° |
| 2026-05-06 09:18 | 30.24137 | 120.42622 | 35 ft | 2 kts | 143° |
| 2026-05-06 09:19 | 30.24149 | 120.42612 | 35 ft | 2 kts | 143° |
| 2026-05-06 09:19 | 30.24161 | 120.42601 | 35 ft | 2 kts | 143° |
| 2026-05-06 09:19 | 30.24173 | 120.42591 | 35 ft | 2 kts | 143° |
| 2026-05-06 09:19 | 30.24185 | 120.42580 | 35 ft | 2 kts | 123° |
| 2026-05-06 09:20 | 30.24190 | 120.42564 | 35 ft | 2 kts | 98° |
| 2026-05-06 09:20 | 30.24190 | 120.42547 | 35 ft | 2 kts | 77° |
| 2026-05-06 09:20 | 30.24185 | 120.42531 | 35 ft | 2 kts | 59° |
| 2026-05-06 09:20 | 30.24178 | 120.42516 | 35 ft | 2 kts | 60° |
| 2026-05-06 09:21 | 30.24171 | 120.42503 | 35 ft | 0 kts | 63° |
| 2026-05-06 09:21 | 30.24171 | 120.42502 | 35 ft | 0 kts | 63° |
| 2026-05-06 09:24 | 30.24175 | 120.42509 | 35 ft | 2 kts | 63° |
| 2026-05-06 09:24 | 30.24185 | 120.42532 | 35 ft | 4 kts | 63° |
| 2026-05-06 09:24 | 30.24202 | 120.42571 | 35 ft | 6 kts | 63° |
| 2026-05-06 09:25 | 30.24225 | 120.42625 | 35 ft | 8 kts | 63° |
| 2026-05-06 09:25 | 30.24255 | 120.42691 | 35 ft | 9 kts | 63° |
| 2026-05-06 09:25 | 30.24285 | 120.42758 | 35 ft | 8 kts | 63° |
| 2026-05-06 09:25 | 30.24317 | 120.42809 | 35 ft | 6 kts | 18° |
| 2026-05-06 09:26 | 30.24359 | 120.42795 | 35 ft | 6 kts | 340° |
| 2026-05-06 09:26 | 30.24401 | 120.42806 | 35 ft | 7 kts | 48° |
| 2026-05-06 09:26 | 30.24431 | 120.42868 | 35 ft | 10 kts | 63° |
| 2026-05-06 09:26 | 30.24466 | 120.42948 | 35 ft | 12 kts | 63° |
| 2026-05-06 09:27 | 30.24508 | 120.43044 | 35 ft | 14 kts | 63° |
| 2026-05-06 09:27 | 30.24556 | 120.43152 | 35 ft | 15 kts | 63° |
| 2026-05-06 09:27 | 30.24608 | 120.43269 | 35 ft | 17 kts | 63° |
| 2026-05-06 09:27 | 30.24660 | 120.43388 | 35 ft | 9 kts | 63° |
| 2026-05-06 09:28 | 30.24681 | 120.43455 | 35 ft | 7 kts | 97° |
| 2026-05-06 09:28 | 30.24645 | 120.43497 | 35 ft | 8 kts | 151° |
| 2026-05-06 09:28 | 30.24587 | 120.43533 | 35 ft | 10 kts | 152° |
| 2026-05-06 09:28 | 30.24515 | 120.43575 | 35 ft | 12 kts | 153° |
| 2026-05-06 09:29 | 30.24431 | 120.43625 | 35 ft | 14 kts | 153° |
| 2026-05-06 09:29 | 30.24334 | 120.43670 | 35 ft | 15 kts | 161° |
| 2026-05-06 09:29 | 30.24228 | 120.43727 | 35 ft | 17 kts | 153° |
| 2026-05-06 09:29 | 30.24116 | 120.43793 | 35 ft | 18 kts | 153° |
| 2026-05-06 09:30 | 30.23999 | 120.43862 | 35 ft | 19 kts | 153° |
| 2026-05-06 09:30 | 30.23872 | 120.43936 | 35 ft | 20 kts | 153° |
| 2026-05-06 09:30 | 30.23741 | 120.44013 | 35 ft | 21 kts | 152° |
| 2026-05-06 09:30 | 30.23646 | 120.44069 | 35 ft | 9 kts | 152° |
| 2026-05-06 09:31 | 30.23596 | 120.44066 | 35 ft | 7 kts | 223° |
| 2026-05-06 09:31 | 30.23568 | 120.44011 | 35 ft | 9 kts | 242° |
| 2026-05-06 09:31 | 30.23534 | 120.43933 | 35 ft | 12 kts | 243° |
| 2026-05-06 09:31 | 30.23492 | 120.43838 | 35 ft | 14 kts | 243° |
| 2026-05-06 09:32 | 30.23443 | 120.43729 | 35 ft | 16 kts | 243° |
| 2026-05-06 09:32 | 30.23388 | 120.43604 | 35 ft | 17 kts | 243° |
| 2026-05-06 09:32 | 30.23328 | 120.43469 | 35 ft | 19 kts | 243° |
| 2026-05-06 09:32 | 30.23265 | 120.43325 | 35 ft | 20 kts | 243° |
| 2026-05-06 09:33 | 30.23195 | 120.43169 | 35 ft | 22 kts | 243° |
| 2026-05-06 09:33 | 30.23124 | 120.43007 | 35 ft | 18 kts | 243° |
| 2026-05-06 09:33 | 30.23088 | 120.42929 | 35 ft | 8 kts | 231° |
| 2026-05-06 09:33 | 30.23034 | 120.42924 | 35 ft | 7 kts | 174° |
| 2026-05-06 09:34 | 30.22984 | 120.42933 | 35 ft | 6 kts | 164° |
| 2026-05-06 09:34 | 30.22931 | 120.42939 | 35 ft | 8 kts | 203° |
| 2026-05-06 09:34 | 30.22890 | 120.42871 | 35 ft | 12 kts | 242° |
| 2026-05-06 09:34 | 30.22845 | 120.42770 | 35 ft | 15 kts | 243° |
| 2026-05-06 09:35 | 30.22792 | 120.42651 | 35 ft | 18 kts | 243° |
| 2026-05-06 09:35 | 30.22731 | 120.42512 | 35 ft | 20 kts | 243° |
| 2026-05-06 09:35 | 30.22661 | 120.42355 | 35 ft | 22 kts | 242° |
| 2026-05-06 09:35 | 30.22586 | 120.42184 | 35 ft | 24 kts | 243° |
| 2026-05-06 09:36 | 30.22507 | 120.42005 | 35 ft | 24 kts | 243° |
| 2026-05-06 09:36 | 30.22434 | 120.41840 | 35 ft | 22 kts | 243° |
| 2026-05-06 09:36 | 30.22396 | 120.41753 | 35 ft | 9 kts | 243° |
| 2026-05-06 09:36 | 30.22358 | 120.41708 | 35 ft | 6 kts | 172° |
| 2026-05-06 09:37 | 30.22322 | 120.41724 | 35 ft | 0 kts | 153° |
| 2026-05-06 09:39 | 30.22315 | 120.41729 | 35 ft | 3 kts | 153° |
| 2026-05-06 09:40 | 30.22282 | 120.41748 | 35 ft | 7 kts | 153° |
| 2026-05-06 09:40 | 30.22233 | 120.41786 | 35 ft | 9 kts | 119° |
| 2026-05-06 09:40 | 30.22263 | 120.41888 | 35 ft | 1 kts | 63° |
| 2026-05-06 09:44 | 30.22292 | 120.41954 | 35 ft | 30 kts | 63° |
| 2026-05-06 09:44 | 30.22501 | 120.42426 | 35 ft | 99 kts | 63° |
| 2026-05-06 09:44 | 30.22913 | 120.43353 | 37 ft | 157 kts | 64° |
| 2026-05-06 09:45 | 30.23446 | 120.44552 | 502 ft | 169 kts | 65° |
| 2026-05-06 09:45 | 30.23983 | 120.45811 | 1101 ft | 182 kts | 70° |
| 2026-05-06 09:45 | 30.24223 | 120.47283 | 1504 ft | 195 kts | 93° |
| 2026-05-06 09:45 | 30.24048 | 120.48892 | 1872 ft | 211 kts | 100° |
| 2026-05-06 09:46 | 30.23804 | 120.50644 | 2298 ft | 228 kts | 101° |
| 2026-05-06 09:46 | 30.23542 | 120.52512 | 2746 ft | 245 kts | 101° |
| 2026-05-06 09:46 | 30.23259 | 120.54524 | 3230 ft | 261 kts | 100° |
| 2026-05-06 09:46 | 30.22720 | 120.56548 | 3879 ft | 265 kts | 122° |
| 2026-05-06 09:47 | 30.21451 | 120.58095 | 4579 ft | 267 kts | 147° |
| 2026-05-06 09:47 | 30.19850 | 120.59161 | 5328 ft | 269 kts | 153° |
| 2026-05-06 09:47 | 30.18145 | 120.60086 | 6032 ft | 272 kts | 163° |
| 2026-05-06 09:47 | 30.16258 | 120.60276 | 6643 ft | 276 kts | 189° |
| 2026-05-06 09:48 | 30.14455 | 120.59486 | 7297 ft | 279 kts | 215° |
| 2026-05-06 09:48 | 30.13130 | 120.57860 | 7943 ft | 281 kts | 238° |
| 2026-05-06 09:48 | 30.12204 | 120.55877 | 8688 ft | 281 kts | 243° |
| 2026-05-06 09:48 | 30.11301 | 120.53827 | 9349 ft | 285 kts | 243° |
| 2026-05-06 09:49 | 30.10397 | 120.51779 | 9704 ft | 289 kts | 243° |
| 2026-05-06 09:49 | 30.09484 | 120.49712 | 9745 ft | 288 kts | 243° |
| 2026-05-06 09:49 | 30.08571 | 120.47644 | 9742 ft | 288 kts | 243° |
| 2026-05-06 09:49 | 30.07649 | 120.45557 | 9766 ft | 288 kts | 243° |
| 2026-05-06 09:50 | 30.06739 | 120.43497 | 9751 ft | 288 kts | 243° |
| 2026-05-06 09:50 | 30.05827 | 120.41436 | 9750 ft | 289 kts | 243° |
| 2026-05-06 09:50 | 30.04902 | 120.39343 | 9753 ft | 289 kts | 243° |
| 2026-05-06 09:50 | 30.03987 | 120.37283 | 9751 ft | 288 kts | 243° |
| 2026-05-06 09:51 | 30.03065 | 120.35222 | 9751 ft | 288 kts | 243° |
| 2026-05-06 09:51 | 30.02149 | 120.33174 | 9764 ft | 288 kts | 243° |
| 2026-05-06 09:51 | 30.01226 | 120.31110 | 9749 ft | 287 kts | 243° |
| 2026-05-06 09:51 | 30.00307 | 120.29057 | 9746 ft | 288 kts | 243° |
| 2026-05-06 09:52 | 29.99377 | 120.26981 | 9751 ft | 289 kts | 242° |
| 2026-05-06 09:52 | 29.98389 | 120.24882 | 10222 ft | 299 kts | 242° |
| 2026-05-06 09:52 | 29.97375 | 120.22750 | 10620 ft | 314 kts | 242° |
| 2026-05-06 09:52 | 29.96293 | 120.20466 | 10992 ft | 330 kts | 242° |
| 2026-05-06 09:53 | 29.95172 | 120.18095 | 11378 ft | 345 kts | 242° |
| 2026-05-06 09:53 | 29.93994 | 120.15606 | 11782 ft | 360 kts | 242° |
| 2026-05-06 09:53 | 29.92764 | 120.13013 | 12222 ft | 374 kts | 242° |
| 2026-05-06 09:53 | 29.91508 | 120.10362 | 12878 ft | 381 kts | 242° |
| 2026-05-06 09:54 | 29.90231 | 120.07674 | 13511 ft | 384 kts | 242° |
| 2026-05-06 09:54 | 29.88943 | 120.04961 | 13708 ft | 385 kts | 242° |
| 2026-05-06 09:54 | 29.87657 | 120.02256 | 13724 ft | 384 kts | 242° |
| 2026-05-06 09:54 | 29.86358 | 119.99522 | 13731 ft | 384 kts | 242° |
| 2026-05-06 09:55 | 29.85038 | 119.96867 | 13729 ft | 384 kts | 237° |
| 2026-05-06 09:55 | 29.83400 | 119.94384 | 13971 ft | 397 kts | 232° |
| 2026-05-06 09:55 | 29.81681 | 119.91934 | 15017 ft | 394 kts | 232° |
| 2026-05-06 09:55 | 29.79966 | 119.89494 | 16111 ft | 391 kts | 233° |
| 2026-05-06 09:56 | 29.78256 | 119.87060 | 17012 ft | 393 kts | 233° |
| 2026-05-06 09:56 | 29.76517 | 119.84587 | 17761 ft | 399 kts | 233° |
| 2026-05-06 09:56 | 29.74768 | 119.82100 | 18555 ft | 403 kts | 233° |
| 2026-05-06 09:56 | 29.73002 | 119.79592 | 19358 ft | 406 kts | 233° |
| 2026-05-06 09:57 | 29.71216 | 119.77055 | 20117 ft | 410 kts | 233° |
| 2026-05-06 09:57 | 29.69401 | 119.74480 | 20873 ft | 414 kts | 233° |
| 2026-05-06 09:57 | 29.67591 | 119.71913 | 21611 ft | 418 kts | 233° |
| 2026-05-06 09:57 | 29.65849 | 119.69227 | 22321 ft | 420 kts | 240° |
| 2026-05-06 09:58 | 29.64480 | 119.66296 | 23006 ft | 422 kts | 248° |
| 2026-05-06 09:58 | 29.63505 | 119.63103 | 23671 ft | 425 kts | 257° |
| 2026-05-06 09:58 | 29.62980 | 119.59794 | 24370 ft | 427 kts | 264° |
| 2026-05-06 09:58 | 29.62513 | 119.56420 | 25082 ft | 430 kts | 258° |
| 2026-05-06 09:59 | 29.61615 | 119.53126 | 25802 ft | 435 kts | 250° |
| 2026-05-06 09:59 | 29.60325 | 119.49938 | 26478 ft | 440 kts | 245° |
| 2026-05-06 09:59 | 29.58838 | 119.46902 | 27125 ft | 445 kts | 242° |
| 2026-05-06 09:59 | 29.57153 | 119.43867 | 27754 ft | 450 kts | 239° |
| 2026-05-06 10:00 | 29.55357 | 119.40896 | 28421 ft | 454 kts | 238° |
| 2026-05-06 10:00 | 29.53482 | 119.37983 | 29090 ft | 457 kts | 236° |
| 2026-05-06 10:00 | 29.51513 | 119.35105 | 29761 ft | 460 kts | 235° |
| 2026-05-06 10:00 | 29.49472 | 119.32238 | 30497 ft | 460 kts | 233° |
| 2026-05-06 10:01 | 29.47419 | 119.29436 | 31230 ft | 460 kts | 233° |
| 2026-05-06 10:01 | 29.45329 | 119.26642 | 31912 ft | 459 kts | 233° |
| 2026-05-06 10:01 | 29.43241 | 119.23889 | 32462 ft | 461 kts | 233° |
| 2026-05-06 10:01 | 29.41118 | 119.21122 | 33026 ft | 461 kts | 232° |
| 2026-05-06 10:02 | 29.38978 | 119.18355 | 33625 ft | 462 kts | 232° |
| 2026-05-06 10:02 | 29.36824 | 119.15587 | 34028 ft | 464 kts | 232° |
| 2026-05-06 10:02 | 29.32523 | 119.10102 | 34027 ft | 457 kts | 232° |
| 2026-05-06 10:03 | 29.28249 | 119.04683 | 34027 ft | 456 kts | 232° |
| 2026-05-06 10:03 | 29.23963 | 118.99268 | 34025 ft | 458 kts | 232° |
| 2026-05-06 10:04 | 29.19684 | 118.93882 | 34030 ft | 456 kts | 232° |
| 2026-05-06 10:04 | 29.15396 | 118.88493 | 34034 ft | 454 kts | 232° |
| 2026-05-06 10:05 | 29.11110 | 118.83117 | 34030 ft | 455 kts | 232° |
| 2026-05-06 10:05 | 29.06859 | 118.77792 | 34031 ft | 455 kts | 232° |
| 2026-05-06 10:06 | 29.02564 | 118.72419 | 34018 ft | 455 kts | 232° |
| 2026-05-06 10:06 | 28.98284 | 118.67072 | 34010 ft | 455 kts | 232° |
| 2026-05-06 10:07 | 28.93993 | 118.61719 | 34016 ft | 453 kts | 232° |
| 2026-05-06 10:07 | 28.89709 | 118.56381 | 34017 ft | 454 kts | 232° |
| 2026-05-06 10:08 | 28.85446 | 118.51077 | 34016 ft | 454 kts | 232° |
| 2026-05-06 10:08 | 28.81134 | 118.45719 | 34012 ft | 454 kts | 232° |
| 2026-05-06 10:09 | 28.76857 | 118.40411 | 34010 ft | 454 kts | 232° |
| 2026-05-06 10:09 | 28.72539 | 118.35059 | 34008 ft | 455 kts | 232° |
| 2026-05-06 10:10 | 28.68300 | 118.29813 | 34022 ft | 454 kts | 231° |
| 2026-05-06 10:10 | 28.63986 | 118.24480 | 34025 ft | 454 kts | 231° |
| 2026-05-06 10:11 | 28.59702 | 118.19191 | 34037 ft | 455 kts | 231° |
| 2026-05-06 10:11 | 28.55389 | 118.13874 | 34043 ft | 456 kts | 231° |
| 2026-05-06 10:12 | 28.51079 | 118.08567 | 34041 ft | 454 kts | 231° |
| 2026-05-06 10:12 | 28.46743 | 118.03236 | 34030 ft | 455 kts | 231° |
| 2026-05-06 10:13 | 28.42445 | 117.97956 | 34027 ft | 456 kts | 231° |
| 2026-05-06 10:13 | 28.38055 | 117.92697 | 34028 ft | 456 kts | 230° |
| 2026-05-06 10:14 | 28.33650 | 117.87508 | 34027 ft | 457 kts | 230° |
| 2026-05-06 10:14 | 28.29195 | 117.82261 | 34022 ft | 457 kts | 230° |
| 2026-05-06 10:15 | 28.24778 | 117.77060 | 34015 ft | 457 kts | 230° |
| 2026-05-06 10:15 | 28.20367 | 117.71871 | 34022 ft | 456 kts | 230° |
| 2026-05-06 10:16 | 28.15942 | 117.66671 | 34024 ft | 457 kts | 230° |
| 2026-05-06 10:16 | 28.11518 | 117.61479 | 34036 ft | 455 kts | 230° |
| 2026-05-06 10:17 | 28.07117 | 117.56319 | 34044 ft | 456 kts | 230° |
| 2026-05-06 10:17 | 28.02671 | 117.51112 | 34033 ft | 457 kts | 230° |
| 2026-05-06 10:18 | 27.98277 | 117.45971 | 34028 ft | 454 kts | 230° |
| 2026-05-06 10:18 | 27.93844 | 117.40790 | 34051 ft | 455 kts | 230° |
| 2026-05-06 10:19 | 27.89447 | 117.35659 | 34055 ft | 455 kts | 230° |
| 2026-05-06 10:19 | 27.85008 | 117.30484 | 34066 ft | 455 kts | 230° |
| 2026-05-06 10:20 | 27.80663 | 117.25424 | 34071 ft | 455 kts | 230° |
| 2026-05-06 10:20 | 27.76230 | 117.20270 | 34062 ft | 456 kts | 230° |
| 2026-05-06 10:21 | 27.71797 | 117.15122 | 34046 ft | 453 kts | 230° |
| 2026-05-06 10:21 | 27.67373 | 117.09991 | 34048 ft | 454 kts | 230° |
| 2026-05-06 10:22 | 27.62972 | 117.04893 | 34060 ft | 452 kts | 230° |
| 2026-05-06 10:22 | 27.58575 | 116.99806 | 34070 ft | 451 kts | 230° |
| 2026-05-06 10:23 | 27.54189 | 116.94736 | 34068 ft | 452 kts | 230° |
| 2026-05-06 10:23 | 27.49797 | 116.89643 | 34065 ft | 451 kts | 231° |
| 2026-05-06 10:24 | 27.45435 | 116.84531 | 34040 ft | 451 kts | 230° |
| 2026-05-06 10:24 | 27.41086 | 116.79440 | 34028 ft | 450 kts | 230° |
| 2026-05-06 10:25 | 27.36694 | 116.74309 | 34019 ft | 451 kts | 231° |
| 2026-05-06 10:25 | 27.32316 | 116.69201 | 34021 ft | 452 kts | 230° |
| 2026-05-06 10:26 | 27.27956 | 116.64120 | 34022 ft | 451 kts | 231° |
| 2026-05-06 10:26 | 27.23585 | 116.59034 | 34018 ft | 450 kts | 230° |
| 2026-05-06 10:27 | 27.19243 | 116.53949 | 34024 ft | 451 kts | 231° |
| 2026-05-06 10:27 | 27.14978 | 116.48764 | 34021 ft | 448 kts | 232° |
| 2026-05-06 10:28 | 27.10734 | 116.43614 | 34039 ft | 449 kts | 232° |
| 2026-05-06 10:28 | 27.06454 | 116.38433 | 34046 ft | 448 kts | 232° |
| 2026-05-06 10:29 | 27.02190 | 116.33280 | 34059 ft | 448 kts | 231° |
| 2026-05-06 10:29 | 26.97936 | 116.28146 | 34061 ft | 449 kts | 231° |
| 2026-05-06 10:30 | 26.93656 | 116.22990 | 34058 ft | 449 kts | 231° |
| 2026-05-06 10:30 | 26.89424 | 116.17867 | 34057 ft | 449 kts | 231° |
| 2026-05-06 10:31 | 26.85193 | 116.12710 | 34054 ft | 449 kts | 231° |
| 2026-05-06 10:31 | 26.80941 | 116.07536 | 34048 ft | 448 kts | 231° |
| 2026-05-06 10:32 | 26.76678 | 116.02354 | 34043 ft | 449 kts | 231° |
| 2026-05-06 10:32 | 26.72440 | 115.97211 | 34037 ft | 450 kts | 231° |
| 2026-05-06 10:33 | 26.68158 | 115.92021 | 34029 ft | 449 kts | 231° |
| 2026-05-06 10:33 | 26.63899 | 115.86865 | 34030 ft | 449 kts | 231° |
| 2026-05-06 10:34 | 26.59656 | 115.81735 | 34034 ft | 450 kts | 232° |
| 2026-05-06 10:34 | 26.55385 | 115.76576 | 34032 ft | 448 kts | 231° |
| 2026-05-06 10:35 | 26.51143 | 115.71458 | 34027 ft | 450 kts | 231° |
| 2026-05-06 10:35 | 26.46877 | 115.66320 | 34023 ft | 448 kts | 231° |
| 2026-05-06 10:36 | 26.42628 | 115.61206 | 34024 ft | 449 kts | 232° |
| 2026-05-06 10:36 | 26.38351 | 115.56065 | 34031 ft | 449 kts | 231° |
| 2026-05-06 10:37 | 26.34084 | 115.50942 | 34037 ft | 451 kts | 231° |
| 2026-05-06 10:37 | 26.29783 | 115.45784 | 34034 ft | 449 kts | 231° |
| 2026-05-06 10:38 | 26.25533 | 115.40694 | 34025 ft | 449 kts | 231° |
| 2026-05-06 10:38 | 26.21274 | 115.35598 | 34015 ft | 449 kts | 231° |
| 2026-05-06 10:39 | 26.16968 | 115.30450 | 34016 ft | 452 kts | 231° |
| 2026-05-06 10:39 | 26.12678 | 115.25331 | 34010 ft | 451 kts | 231° |
| 2026-05-06 10:40 | 26.08398 | 115.20228 | 34008 ft | 451 kts | 231° |
| 2026-05-06 10:40 | 26.04106 | 115.15116 | 34011 ft | 452 kts | 231° |
| 2026-05-06 10:41 | 25.99796 | 115.09989 | 34013 ft | 450 kts | 231° |
| 2026-05-06 10:41 | 25.95512 | 115.04899 | 34021 ft | 451 kts | 231° |
| 2026-05-06 10:42 | 25.91201 | 114.99783 | 34033 ft | 452 kts | 231° |
| 2026-05-06 10:42 | 25.86897 | 114.94680 | 34026 ft | 451 kts | 231° |
| 2026-05-06 10:43 | 25.82428 | 114.89973 | 34026 ft | 459 kts | 220° |
| 2026-05-06 10:44 | 25.73501 | 114.85696 | 34030 ft | 474 kts | 198° |
| 2026-05-06 10:44 | 25.67011 | 114.84067 | 34021 ft | 475 kts | 198° |
| 2026-05-06 10:45 | 25.60528 | 114.82456 | 34014 ft | 475 kts | 197° |
| 2026-05-06 10:45 | 25.54067 | 114.80854 | 34015 ft | 474 kts | 198° |
| 2026-05-06 10:46 | 25.47573 | 114.79245 | 34017 ft | 476 kts | 197° |
| 2026-05-06 10:46 | 25.41081 | 114.77639 | 34016 ft | 474 kts | 197° |
| 2026-05-06 10:47 | 25.34576 | 114.76031 | 34024 ft | 476 kts | 197° |
| 2026-05-06 10:47 | 25.28072 | 114.74425 | 34021 ft | 475 kts | 197° |
| 2026-05-06 10:48 | 25.21596 | 114.72829 | 34015 ft | 476 kts | 197° |
| 2026-05-06 10:48 | 25.15103 | 114.71230 | 34025 ft | 476 kts | 197° |
| 2026-05-06 10:49 | 25.08605 | 114.69630 | 34041 ft | 477 kts | 197° |
| 2026-05-06 10:49 | 25.02073 | 114.68025 | 34051 ft | 477 kts | 197° |
| 2026-05-06 10:50 | 24.95562 | 114.66427 | 34058 ft | 478 kts | 197° |
| 2026-05-06 10:50 | 24.89016 | 114.64822 | 34049 ft | 476 kts | 197° |
| 2026-05-06 10:51 | 24.82556 | 114.63236 | 34045 ft | 477 kts | 197° |
| 2026-05-06 10:51 | 24.76126 | 114.61657 | 34042 ft | 477 kts | 197° |
| 2026-05-06 10:52 | 24.70038 | 114.59858 | 34046 ft | 471 kts | 207° |
| 2026-05-06 10:52 | 24.64326 | 114.56556 | 34055 ft | 467 kts | 214° |
| 2026-05-06 10:53 | 24.58664 | 114.52975 | 34067 ft | 466 kts | 214° |
| 2026-05-06 10:53 | 24.53010 | 114.49404 | 34078 ft | 467 kts | 214° |
| 2026-05-06 10:54 | 24.47348 | 114.45834 | 34081 ft | 466 kts | 214° |
| 2026-05-06 10:54 | 24.41713 | 114.42284 | 34074 ft | 466 kts | 214° |
| 2026-05-06 10:55 | 24.36049 | 114.38727 | 34073 ft | 467 kts | 214° |
| 2026-05-06 10:55 | 24.30388 | 114.35179 | 34075 ft | 467 kts | 214° |
| 2026-05-06 10:56 | 24.24678 | 114.31604 | 34091 ft | 468 kts | 214° |
| 2026-05-06 10:56 | 24.19203 | 114.28179 | 34098 ft | 468 kts | 214° |
| 2026-05-06 10:57 | 24.13523 | 114.24626 | 34097 ft | 467 kts | 215° |
| 2026-05-06 10:57 | 24.08536 | 114.20212 | 34077 ft | 455 kts | 232° |
| 2026-05-06 10:57 | 24.06585 | 114.17508 | 33827 ft | 450 kts | 240° |
| 2026-05-06 10:58 | 24.04991 | 114.14542 | 33326 ft | 452 kts | 245° |
| 2026-05-06 10:58 | 24.03516 | 114.11485 | 32816 ft | 456 kts | 245° |
| 2026-05-06 10:58 | 24.02031 | 114.08393 | 32435 ft | 458 kts | 245° |
| 2026-05-06 10:58 | 24.00537 | 114.05290 | 32150 ft | 458 kts | 245° |
| 2026-05-06 10:59 | 23.99066 | 114.02241 | 31892 ft | 458 kts | 245° |
| 2026-05-06 10:59 | 23.97566 | 113.99136 | 31573 ft | 459 kts | 245° |
| 2026-05-06 10:59 | 23.96077 | 113.96059 | 31205 ft | 460 kts | 245° |
| 2026-05-06 10:59 | 23.94577 | 113.92963 | 30569 ft | 456 kts | 245° |
| 2026-05-06 11:00 | 23.93093 | 113.89906 | 30071 ft | 450 kts | 245° |
| 2026-05-06 11:00 | 23.91656 | 113.86948 | 29567 ft | 445 kts | 245° |
| 2026-05-06 11:00 | 23.90198 | 113.83947 | 29028 ft | 440 kts | 245° |
| 2026-05-06 11:00 | 23.88765 | 113.81001 | 28488 ft | 435 kts | 245° |
| 2026-05-06 11:01 | 23.87363 | 113.78120 | 27962 ft | 431 kts | 245° |
| 2026-05-06 11:01 | 23.85987 | 113.75292 | 27434 ft | 428 kts | 245° |
| 2026-05-06 11:01 | 23.84595 | 113.72433 | 26895 ft | 424 kts | 244° |
| 2026-05-06 11:01 | 23.83211 | 113.69592 | 26366 ft | 420 kts | 244° |
| 2026-05-06 11:02 | 23.81835 | 113.66771 | 25833 ft | 417 kts | 244° |
| 2026-05-06 11:02 | 23.80300 | 113.64106 | 25295 ft | 415 kts | 234° |
| 2026-05-06 11:02 | 23.78341 | 113.61762 | 24759 ft | 415 kts | 224° |
| 2026-05-06 11:02 | 23.76056 | 113.59850 | 24222 ft | 414 kts | 216° |
| 2026-05-06 11:03 | 23.73623 | 113.58160 | 23693 ft | 411 kts | 214° |
| 2026-05-06 11:03 | 23.71227 | 113.56525 | 23165 ft | 408 kts | 214° |
| 2026-05-06 11:03 | 23.68801 | 113.54874 | 22625 ft | 405 kts | 214° |
| 2026-05-06 11:03 | 23.66393 | 113.53236 | 22095 ft | 402 kts | 214° |
| 2026-05-06 11:04 | 23.64033 | 113.51631 | 21570 ft | 399 kts | 214° |
| 2026-05-06 11:04 | 23.61667 | 113.50024 | 21033 ft | 397 kts | 214° |
| 2026-05-06 11:04 | 23.59216 | 113.48634 | 20495 ft | 396 kts | 204° |
| 2026-05-06 11:04 | 23.56602 | 113.47738 | 19971 ft | 396 kts | 197° |
| 2026-05-06 11:05 | 23.53910 | 113.46995 | 19435 ft | 393 kts | 197° |
| 2026-05-06 11:05 | 23.51271 | 113.46279 | 18900 ft | 391 kts | 197° |
| 2026-05-06 11:05 | 23.48597 | 113.45553 | 18360 ft | 389 kts | 197° |
| 2026-05-06 11:05 | 23.45982 | 113.44843 | 17831 ft | 387 kts | 197° |
| 2026-05-06 11:06 | 23.43332 | 113.44125 | 17297 ft | 385 kts | 197° |
| 2026-05-06 11:06 | 23.40732 | 113.43420 | 16755 ft | 383 kts | 197° |
| 2026-05-06 11:06 | 23.38138 | 113.42717 | 16220 ft | 381 kts | 197° |
| 2026-05-06 11:06 | 23.35588 | 113.42026 | 15696 ft | 379 kts | 196° |
| 2026-05-06 11:07 | 23.32988 | 113.41322 | 15170 ft | 377 kts | 197° |
| 2026-05-06 11:07 | 23.30483 | 113.40643 | 14657 ft | 375 kts | 197° |
| 2026-05-06 11:07 | 23.27936 | 113.39954 | 14310 ft | 366 kts | 197° |
| 2026-05-06 11:07 | 23.25512 | 113.39301 | 14221 ft | 352 kts | 197° |
| 2026-05-06 11:08 | 23.23155 | 113.38663 | 14105 ft | 339 kts | 197° |
| 2026-05-06 11:08 | 23.20883 | 113.38049 | 13954 ft | 327 kts | 197° |
| 2026-05-06 11:08 | 23.18717 | 113.37463 | 13815 ft | 316 kts | 197° |
| 2026-05-06 11:08 | 23.16589 | 113.36888 | 13682 ft | 305 kts | 197° |
| 2026-05-06 11:09 | 23.14560 | 113.36340 | 13549 ft | 295 kts | 197° |
| 2026-05-06 11:09 | 23.12580 | 113.35805 | 13422 ft | 285 kts | 197° |
| 2026-05-06 11:09 | 23.10696 | 113.35296 | 13301 ft | 275 kts | 197° |
| 2026-05-06 11:09 | 23.08856 | 113.34799 | 13188 ft | 263 kts | 197° |
| 2026-05-06 11:10 | 23.07082 | 113.34320 | 12902 ft | 261 kts | 197° |
| 2026-05-06 11:10 | 23.05480 | 113.33887 | 12536 ft | 263 kts | 197° |
| 2026-05-06 11:10 | 23.03699 | 113.33405 | 12144 ft | 264 kts | 197° |
| 2026-05-06 11:10 | 23.01915 | 113.32925 | 11768 ft | 264 kts | 197° |
| 2026-05-06 11:11 | 23.00105 | 113.32437 | 11397 ft | 264 kts | 197° |
| 2026-05-06 11:11 | 22.98325 | 113.31958 | 11017 ft | 264 kts | 197° |
| 2026-05-06 11:11 | 22.96538 | 113.31477 | 10659 ft | 256 kts | 197° |
| 2026-05-06 11:11 | 22.94850 | 113.31024 | 10322 ft | 243 kts | 197° |
| 2026-05-06 11:12 | 22.93267 | 113.30561 | 10000 ft | 230 kts | 206° |
| 2026-05-06 11:12 | 22.92055 | 113.29556 | 9677 ft | 212 kts | 237° |
| 2026-05-06 11:12 | 22.91458 | 113.28142 | 9386 ft | 202 kts | 261° |
| 2026-05-06 11:12 | 22.91434 | 113.26632 | 9120 ft | 200 kts | 274° |
| 2026-05-06 11:13 | 22.91632 | 113.25143 | 8868 ft | 201 kts | 280° |
| 2026-05-06 11:13 | 22.91947 | 113.23650 | 8576 ft | 199 kts | 282° |
| 2026-05-06 11:13 | 22.92281 | 113.22201 | 8309 ft | 198 kts | 283° |
| 2026-05-06 11:13 | 22.92869 | 113.20851 | 8039 ft | 201 kts | 307° |
| 2026-05-06 11:14 | 22.93974 | 113.19933 | 7839 ft | 202 kts | 334° |
| 2026-05-06 11:14 | 22.95399 | 113.19657 | 7549 ft | 213 kts | 2° |
| 2026-05-06 11:14 | 22.96873 | 113.19967 | 7229 ft | 212 kts | 12° |
| 2026-05-06 11:14 | 22.98289 | 113.20354 | 6947 ft | 211 kts | 12° |
| 2026-05-06 11:15 | 22.99733 | 113.20747 | 6669 ft | 212 kts | 12° |
| 2026-05-06 11:15 | 23.01151 | 113.21130 | 6390 ft | 211 kts | 12° |
| 2026-05-06 11:15 | 23.02589 | 113.21516 | 6106 ft | 210 kts | 12° |
| 2026-05-06 11:15 | 23.04009 | 113.21897 | 5830 ft | 209 kts | 13° |
| 2026-05-06 11:16 | 23.05426 | 113.22277 | 5549 ft | 207 kts | 13° |
| 2026-05-06 11:16 | 23.06823 | 113.22652 | 5276 ft | 206 kts | 13° |
| 2026-05-06 11:16 | 23.08215 | 113.23026 | 5005 ft | 205 kts | 13° |
| 2026-05-06 11:16 | 23.09633 | 113.23407 | 4756 ft | 217 kts | 14° |
| 2026-05-06 11:17 | 23.11149 | 113.23814 | 4538 ft | 228 kts | 14° |
| 2026-05-06 11:17 | 23.12709 | 113.24235 | 4307 ft | 230 kts | 14° |
| 2026-05-06 11:17 | 23.14257 | 113.24651 | 4077 ft | 229 kts | 14° |
| 2026-05-06 11:17 | 23.15808 | 113.25069 | 3846 ft | 228 kts | 14° |
| 2026-05-06 11:18 | 23.17364 | 113.25487 | 3607 ft | 224 kts | 14° |
| 2026-05-06 11:18 | 23.18854 | 113.25888 | 3382 ft | 216 kts | 15° |
| 2026-05-06 11:18 | 23.20294 | 113.26276 | 3163 ft | 208 kts | 15° |
| 2026-05-06 11:18 | 23.21681 | 113.26649 | 2929 ft | 193 kts | 15° |
| 2026-05-06 11:19 | 23.22937 | 113.26987 | 2713 ft | 180 kts | 16° |
| 2026-05-06 11:19 | 23.24124 | 113.27307 | 2504 ft | 167 kts | 16° |
| 2026-05-06 11:19 | 23.25255 | 113.27613 | 2307 ft | 164 kts | 17° |
| 2026-05-06 11:19 | 23.26351 | 113.27908 | 2110 ft | 162 kts | 17° |
| 2026-05-06 11:20 | 23.27455 | 113.28207 | 1905 ft | 161 kts | 17° |
| 2026-05-06 11:20 | 23.28553 | 113.28503 | 1700 ft | 161 kts | 17° |
| 2026-05-06 11:20 | 23.29606 | 113.28787 | 1500 ft | 161 kts | 17° |
| 2026-05-06 11:20 | 23.30692 | 113.29080 | 1294 ft | 159 kts | 17° |
| 2026-05-06 11:21 | 23.31772 | 113.29372 | 1088 ft | 158 kts | 17° |
| 2026-05-06 11:21 | 23.32833 | 113.29649 | 887 ft | 156 kts | 15° |
| 2026-05-06 11:21 | 23.33901 | 113.29926 | 681 ft | 156 kts | 17° |
| 2026-05-06 11:21 | 23.34950 | 113.30226 | 472 ft | 154 kts | 17° |
| 2026-05-06 11:22 | 23.35995 | 113.30512 | 275 ft | 153 kts | 15° |
| 2026-05-06 11:22 | 23.37040 | 113.30790 | 84 ft | 152 kts | 16° |
| 2026-05-06 11:22 | 23.37995 | 113.31056 | 58 ft | 121 kts | 13° |
| 2026-05-06 11:22 | 23.38634 | 113.31225 | 58 ft | 67 kts | 13° |
| 2026-05-06 11:23 | 23.38931 | 113.31301 | 58 ft | 28 kts | 7° |
| 2026-05-06 11:23 | 23.39000 | 113.31299 | 58 ft | 2 kts | 353° |
| 2026-05-06 11:23 | 23.39030 | 113.31294 | 58 ft | 6 kts | 351° |
| 2026-05-06 11:23 | 23.39082 | 113.31282 | 58 ft | 9 kts | 347° |
| 2026-05-06 11:24 | 23.39155 | 113.31264 | 58 ft | 12 kts | 346° |
| 2026-05-06 11:24 | 23.39249 | 113.31239 | 58 ft | 15 kts | 346° |
| 2026-05-06 11:24 | 23.39357 | 113.31220 | 58 ft | 15 kts | 7° |
| 2026-05-06 11:24 | 23.39459 | 113.31246 | 58 ft | 14 kts | 13° |
| 2026-05-06 11:25 | 23.39564 | 113.31275 | 58 ft | 16 kts | 14° |
| 2026-05-06 11:25 | 23.39677 | 113.31306 | 58 ft | 17 kts | 13° |
| 2026-05-06 11:25 | 23.39798 | 113.31338 | 58 ft | 18 kts | 14° |
| 2026-05-06 11:25 | 23.39924 | 113.31372 | 58 ft | 19 kts | 14° |
| 2026-05-06 11:26 | 23.40057 | 113.31409 | 58 ft | 19 kts | 13° |
| 2026-05-06 11:26 | 23.40195 | 113.31445 | 58 ft | 20 kts | 14° |
| 2026-05-06 11:26 | 23.40336 | 113.31484 | 58 ft | 21 kts | 14° |
| 2026-05-06 11:26 | 23.40482 | 113.31522 | 58 ft | 21 kts | 13° |
| 2026-05-06 11:27 | 23.40633 | 113.31564 | 58 ft | 22 kts | 14° |
| 2026-05-06 11:27 | 23.40786 | 113.31606 | 58 ft | 22 kts | 14° |
| 2026-05-06 11:27 | 23.40944 | 113.31647 | 58 ft | 23 kts | 14° |
| 2026-05-06 11:27 | 23.41082 | 113.31674 | 58 ft | 16 kts | 5° |
| 2026-05-06 11:28 | 23.41202 | 113.31689 | 58 ft | 17 kts | 12° |
| 2026-05-06 11:28 | 23.41281 | 113.31709 | 58 ft | 9 kts | 14° |
| 2026-05-06 11:28 | 23.41332 | 113.31680 | 58 ft | 10 kts | 296° |
| 2026-05-06 11:28 | 23.41354 | 113.31596 | 58 ft | 12 kts | 284° |
| 2026-05-06 11:29 | 23.41377 | 113.31499 | 58 ft | 14 kts | 284° |
| 2026-05-06 11:29 | 23.41397 | 113.31390 | 58 ft | 15 kts | 273° |
| 2026-05-06 11:29 | 23.41365 | 113.31277 | 57 ft | 16 kts | 228° |
| 2026-05-06 11:29 | 23.41257 | 113.31227 | 58 ft | 17 kts | 193° |
| 2026-05-06 11:30 | 23.41135 | 113.31195 | 57 ft | 18 kts | 194° |
| 2026-05-06 11:30 | 23.41007 | 113.31160 | 57 ft | 19 kts | 193° |
| 2026-05-06 11:30 | 23.40877 | 113.31126 | 58 ft | 19 kts | 194° |
| 2026-05-06 11:30 | 23.40741 | 113.31088 | 58 ft | 20 kts | 194° |
| 2026-05-06 11:31 | 23.40603 | 113.31052 | 57 ft | 20 kts | 194° |
| 2026-05-06 11:31 | 23.40481 | 113.31019 | 57 ft | 6 kts | 197° |
| 2026-05-06 11:31 | 23.40442 | 113.30993 | 58 ft | 6 kts | 232° |
| 2026-05-06 11:31 | 23.40436 | 113.30940 | 57 ft | 8 kts | 285° |
| 2026-05-06 11:32 | 23.40455 | 113.30862 | 57 ft | 12 kts | 283° |
| 2026-05-06 11:32 | 23.40478 | 113.30763 | 57 ft | 15 kts | 284° |
| 2026-05-06 11:32 | 23.40506 | 113.30642 | 57 ft | 16 kts | 284° |
| 2026-05-06 11:32 | 23.40526 | 113.30554 | 57 ft | 9 kts | 284° |
| 2026-05-06 11:33 | 23.40522 | 113.30499 | 57 ft | 7 kts | 210° |
| 2026-05-06 11:33 | 23.40473 | 113.30483 | 57 ft | 7 kts | 196° |
| 2026-05-06 11:33 | 23.40433 | 113.30454 | 57 ft | 7 kts | 224° |
| 2026-05-06 11:33 | 23.40397 | 113.30415 | 57 ft | 7 kts | 227° |
| 2026-05-06 11:34 | 23.40361 | 113.30373 | 57 ft | 8 kts | 227° |
| 2026-05-06 11:34 | 23.40318 | 113.30314 | 57 ft | 10 kts | 247° |
| 2026-05-06 11:34 | 23.40279 | 113.30260 | 57 ft | 8 kts | 204° |
| 2026-05-06 11:34 | 23.40243 | 113.30248 | 57 ft | 3 kts | 195° |
| 2026-05-06 11:35 | 23.40218 | 113.30240 | 57 ft | 3 kts | 194° |
| 2026-05-06 11:35 | 23.40191 | 113.30233 | 57 ft | 3 kts | 194° |
| 2026-05-06 11:35 | 23.40169 | 113.30227 | 57 ft | 0 kts | 194° |
| 2026-05-06 11:35 | 23.40168 | 113.30227 | 57 ft | 0 kts | 194° |